Time;durP1;ratioP1;P1;durP2;ratioP2;P2;SDS_P1;SDS_P2;PMS_P1;PMS_P2;Temp;Humidity;BMP_temperature;BMP_pressure;BME280_temperature;BME280_humidity;BME280_pressure;Samples;Min_cycle;Max_cycle;Signal;HPM_P1;HPM_P2
2022/11/08 00:02:09;;;;;;;23.25;2.97;;;;;;;;;;5035819;28;20055;-70
2022/11/08 00:04:37;;;;;;;21.63;3.53;;;;;;;;;;5086375;28;20055;-72
2022/11/08 00:15:21;;;;;;;11.70;2.53;;;;;;;;;;5084656;28;20054;-70
2022/11/08 00:17:48;;;;;;;20.15;3.05;;;;;;;;;;5082417;28;20036;-70
2022/11/08 00:20:15;;;;;;;19.05;3.38;;;;;;;;;;5084790;28;20051;-70
2022/11/08 00:22:42;;;;;;;18.38;3.13;;;;;;;;;;5063753;28;20066;-71
2022/11/08 00:25:10;;;;;;;16.10;2.65;;;;;;;;;;5063811;28;20053;-71
2022/11/08 00:27:39;;;;;;;21.05;3.05;;;;;;;;;;5082512;28;20052;-71
2022/11/08 00:30:07;;;;;;;14.95;3.22;;;;;;;;;;5085433;28;20051;-70
2022/11/08 00:32:34;;;;;;;15.52;2.92;;;;;;;;;;5062298;28;20101;-71
2022/11/08 00:35:01;;;;;;;19.48;2.83;;;;;;;;;;5082094;28;20059;-71
2022/11/08 00:37:28;;;;;;;16.25;2.92;;;;;;;;;;5062671;28;20431;-70
2022/11/08 00:39:56;;;;;;;18.15;3.58;;;;;;;;;;5084061;28;20044;-70
2022/11/08 00:42:23;;;;;;;15.93;2.78;;;;;;;;;;5080815;28;20055;-71
2022/11/08 00:44:51;;;;;;;21.13;3.15;;;;;;;;;;5079298;28;20052;-71
2022/11/08 00:47:19;;;;;;;16.75;2.95;;;;;;;;;;5076910;28;20483;-71
2022/11/08 00:49:46;;;;;;;19.30;3.20;;;;;;;;;;5081535;28;20052;-71
2022/11/08 00:52:13;;;;;;;17.13;2.83;;;;;;;;;;5079819;28;20051;-71
2022/11/08 00:54:40;;;;;;;11.50;2.20;;;;;;;;;;5082750;28;20059;-71
2022/11/08 00:57:07;;;;;;;16.67;2.97;;;;;;;;;;5076754;28;20041;-71
2022/11/08 00:59:35;;;;;;;20.33;2.88;;;;;;;;;;5066896;28;20498;-71
2022/11/08 01:02:04;;;;;;;19.20;2.78;;;;;;;;;;5066584;28;20498;-70
2022/11/08 01:04:31;;;;;;;11.82;2.47;;;;;;;;;;5083512;28;21161;-72
2022/11/08 01:06:58;;;;;;;19.23;2.47;;;;;;;;;;5082697;28;20048;-71
2022/11/08 01:09:26;;;;;;;18.40;2.47;;;;;;;;;;5060777;28;20052;-71
2022/11/08 01:11:53;;;;;;;13.05;2.50;;;;;;;;;;5062330;28;20059;-72
2022/11/08 01:14:20;;;;;;;19.52;2.92;;;;;;;;;;5076319;28;20048;-71
2022/11/08 01:16:47;;;;;;;13.13;2.58;;;;;;;;;;5082328;28;20040;-71
2022/11/08 01:19:16;;;;;;;15.35;2.63;;;;;;;;;;5075964;28;20403;-70
2022/11/08 01:21:43;;;;;;;14.18;2.38;;;;;;;;;;5079554;28;20494;-70
2022/11/08 01:24:10;;;;;;;12.23;2.53;;;;;;;;;;5066715;28;20051;-70
2022/11/08 01:26:37;;;;;;;9.98;2.45;;;;;;;;;;5084342;28;20040;-71
2022/11/08 01:29:05;;;;;;;15.27;3.03;;;;;;;;;;5060991;28;20052;-71
2022/11/08 01:31:32;;;;;;;18.02;3.53;;;;;;;;;;5078053;28;20585;-70
2022/11/08 01:34:00;;;;;;;17.70;2.80;;;;;;;;;;5078381;28;20104;-71
2022/11/08 01:36:29;;;;;;;14.23;2.53;;;;;;;;;;5079959;28;20047;-70
2022/11/08 01:38:57;;;;;;;14.45;2.75;;;;;;;;;;5081543;28;20048;-72
2022/11/08 01:41:25;;;;;;;11.13;2.35;;;;;;;;;;5078867;28;20467;-71
2022/11/08 01:43:53;;;;;;;14.93;2.58;;;;;;;;;;5080072;28;20127;-70
2022/11/08 01:46:31;;;;;;;11.65;2.45;;;;;;;;;;5079047;28;20454;-70
2022/11/08 01:49:00;;;;;;;18.48;2.38;;;;;;;;;;5083327;28;20043;-70
2022/11/08 01:51:31;;;;;;;12.23;2.20;;;;;;;;;;5082085;28;20063;-70
2022/11/08 01:53:59;;;;;;;12.82;2.33;;;;;;;;;;5069537;28;20052;-72
2022/11/08 01:56:27;;;;;;;18.17;2.50;;;;;;;;;;5071288;28;20056;-71
2022/11/08 01:58:56;;;;;;;12.32;2.25;;;;;;;;;;5079965;28;20510;-71
2022/11/08 02:01:23;;;;;;;17.75;2.03;;;;;;;;;;5079110;28;20425;-70
2022/11/08 02:03:50;;;;;;;16.40;2.75;;;;;;;;;;5084400;28;20059;-71
2022/11/08 02:06:17;;;;;;;24.27;2.97;;;;;;;;;;5055342;28;20453;-70
2022/11/08 02:08:46;;;;;;;7.53;1.63;;;;;;;;;;5074413;28;20555;-71
2022/11/08 02:11:15;;;;;;;14.05;2.47;;;;;;;;;;5062492;28;20044;-71
2022/11/08 02:13:42;;;;;;;11.68;2.40;;;;;;;;;;5060519;28;20056;-72
2022/11/08 02:16:12;;;;;;;18.05;2.13;;;;;;;;;;5062068;28;20838;-71
2022/11/08 02:18:40;;;;;;;14.00;2.80;;;;;;;;;;5085343;28;20068;-71
2022/11/08 02:21:09;;;;;;;15.63;2.65;;;;;;;;;;5080201;28;20055;-70
2022/11/08 02:23:46;;;;;;;18.23;2.72;;;;;;;;;;5085066;28;20048;-71
2022/11/08 02:26:13;;;;;;;13.30;2.10;;;;;;;;;;5064198;28;20064;-72
2022/11/08 02:28:41;;;;;;;15.85;2.70;;;;;;;;;;5085529;28;20087;-71
2022/11/08 02:31:09;;;;;;;14.05;2.75;;;;;;;;;;5084347;28;20407;-71
2022/11/08 02:33:36;;;;;;;11.00;2.00;;;;;;;;;;5068278;28;20117;-71
2022/11/08 02:36:04;;;;;;;11.85;1.98;;;;;;;;;;5067495;28;20067;-71
2022/11/08 02:38:32;;;;;;;13.82;2.25;;;;;;;;;;5086328;28;20059;-71
2022/11/08 02:41:01;;;;;;;13.52;2.33;;;;;;;;;;5082671;28;20046;-71
2022/11/08 02:43:28;;;;;;;20.58;2.55;;;;;;;;;;5069067;28;20055;-71
2022/11/08 02:45:55;;;;;;;12.27;2.28;;;;;;;;;;5084931;28;20172;-71
2022/11/08 02:48:22;;;;;;;13.07;2.63;;;;;;;;;;5082757;28;20048;-71
2022/11/08 02:50:49;;;;;;;14.45;2.50;;;;;;;;;;5082519;28;20059;-72
2022/11/08 02:53:16;;;;;;;12.27;2.45;;;;;;;;;;5086034;28;20054;-71
2022/11/08 02:55:44;;;;;;;15.43;2.63;;;;;;;;;;5086678;28;20120;-71
2022/11/08 02:58:13;;;;;;;14.05;2.20;;;;;;;;;;5080076;28;20052;-71
2022/11/08 03:00:40;;;;;;;11.27;2.22;;;;;;;;;;5085346;28;20051;-71
2022/11/08 03:03:07;;;;;;;10.48;2.45;;;;;;;;;;5071371;28;20048;-71
2022/11/08 03:05:34;;;;;;;17.23;2.40;;;;;;;;;;5087159;28;20052;-71
2022/11/08 03:08:02;;;;;;;12.95;2.50;;;;;;;;;;5067825;28;20044;-71
2022/11/08 03:10:29;;;;;;;13.43;3.00;;;;;;;;;;5065011;28;20056;-72
2022/11/08 03:12:57;;;;;;;14.32;2.22;;;;;;;;;;5067709;28;20475;-71
2022/11/08 03:15:26;;;;;;;9.57;2.38;;;;;;;;;;5083081;28;20055;-72
2022/11/08 03:17:53;;;;;;;13.13;2.35;;;;;;;;;;5063843;28;20510;-71
2022/11/08 03:20:20;;;;;;;18.48;2.70;;;;;;;;;;5079265;28;20036;-70
2022/11/08 03:22:47;;;;;;;10.77;2.10;;;;;;;;;;5087436;28;20450;-71
2022/11/08 03:25:15;;;;;;;11.50;2.33;;;;;;;;;;5084396;28;20105;-71
2022/11/08 03:27:42;;;;;;;13.52;2.63;;;;;;;;;;5075684;28;20052;-71
2022/11/08 03:30:09;;;;;;;13.07;2.53;;;;;;;;;;5067844;28;20048;-71
2022/11/08 03:32:38;;;;;;;19.00;2.72;;;;;;;;;;5072483;28;20051;-71
2022/11/08 03:35:05;;;;;;;14.73;2.38;;;;;;;;;;5069262;28;20055;-71
2022/11/08 03:37:33;;;;;;;14.05;2.47;;;;;;;;;;5082784;28;20060;-71
2022/11/08 03:40:00;;;;;;;9.90;2.15;;;;;;;;;;5067679;28;20079;-71
2022/11/08 03:42:28;;;;;;;13.50;2.30;;;;;;;;;;5084517;28;20159;-72
2022/11/08 03:44:56;;;;;;;10.18;2.20;;;;;;;;;;5084637;28;20738;-71
2022/11/08 03:47:23;;;;;;;11.10;2.28;;;;;;;;;;5086607;28;20062;-71
2022/11/08 03:49:51;;;;;;;15.00;2.83;;;;;;;;;;5067610;28;20044;-71
2022/11/08 03:52:19;;;;;;;16.58;2.35;;;;;;;;;;5063431;28;20522;-71
2022/11/08 03:54:46;;;;;;;17.05;2.60;;;;;;;;;;5063066;28;20048;-71
2022/11/08 03:57:13;;;;;;;14.27;2.25;;;;;;;;;;5084447;28;20513;-71
2022/11/08 03:59:40;;;;;;;8.60;2.35;;;;;;;;;;5065406;28;20048;-71
2022/11/08 04:02:07;;;;;;;10.85;2.88;;;;;;;;;;5068023;28;20063;-71
2022/11/08 04:04:35;;;;;;;14.88;2.72;;;;;;;;;;5063221;28;20521;-71
2022/11/08 04:07:03;;;;;;;9.65;2.17;;;;;;;;;;5066100;28;20063;-72
2022/11/08 04:09:30;;;;;;;10.43;2.17;;;;;;;;;;5081858;28;20043;-71
2022/11/08 04:22:56;;;;;;;9.82;2.00;;;;;;;;;;5066568;28;20068;-71
2022/11/08 04:25:23;;;;;;;13.13;2.80;;;;;;;;;;5085318;28;20105;-72
2022/11/08 04:27:50;;;;;;;12.32;2.15;;;;;;;;;;5060356;28;20388;-72
2022/11/08 04:30:18;;;;;;;16.25;2.58;;;;;;;;;;5077811;28;20052;-71
2022/11/08 04:32:45;;;;;;;10.77;2.25;;;;;;;;;;5071905;28;20056;-71
2022/11/08 04:35:12;;;;;;;8.05;2.00;;;;;;;;;;5066983;28;20051;-72
2022/11/08 04:37:39;;;;;;;12.88;2.33;;;;;;;;;;5085461;28;20060;-71
2022/11/08 04:40:09;;;;;;;14.85;2.72;;;;;;;;;;5085753;28;20518;-71
2022/11/08 04:42:37;;;;;;;12.93;2.30;;;;;;;;;;5070503;28;20070;-71
2022/11/08 04:45:04;;;;;;;14.50;2.50;;;;;;;;;;5068786;28;20047;-71
2022/11/08 04:47:31;;;;;;;23.58;4.30;;;;;;;;;;5085325;28;20054;-72
2022/11/08 04:49:58;;;;;;;10.57;2.53;;;;;;;;;;5069405;28;20060;-71
2022/11/08 04:52:26;;;;;;;9.73;2.40;;;;;;;;;;5067712;28;20832;-71
2022/11/08 04:54:53;;;;;;;12.32;1.95;;;;;;;;;;5070531;28;20048;-70
2022/11/08 04:57:21;;;;;;;14.70;2.78;;;;;;;;;;5084756;28;20056;-71
2022/11/08 04:59:49;;;;;;;11.05;2.72;;;;;;;;;;5066072;28;20044;-72
2022/11/08 05:02:16;;;;;;;11.82;2.60;;;;;;;;;;5060731;28;20059;-71
2022/11/08 05:04:43;;;;;;;9.88;2.40;;;;;;;;;;5059055;28;20075;-71
2022/11/08 05:07:11;;;;;;;11.02;2.22;;;;;;;;;;5058967;28;20051;-72
2022/11/08 05:09:38;;;;;;;13.85;2.70;;;;;;;;;;5061525;28;20070;-71
2022/11/08 05:12:05;;;;;;;11.45;2.72;;;;;;;;;;5076455;28;20048;-72
2022/11/08 05:14:34;;;;;;;15.50;2.50;;;;;;;;;;5061415;28;20047;-70
2022/11/08 05:17:01;;;;;;;11.70;2.55;;;;;;;;;;5062729;28;20513;-71
2022/11/08 05:24:58;;;;;;;12.77;2.75;;;;;;;;;;5083907;28;20575;-71
2022/11/08 05:27:25;;;;;;;10.43;2.47;;;;;;;;;;5069635;28;20055;-72
2022/11/08 05:29:53;;;;;;;9.40;2.22;;;;;;;;;;5065512;28;20105;-71
2022/11/08 05:32:21;;;;;;;12.82;2.55;;;;;;;;;;5064957;28;20055;-71
2022/11/08 05:34:48;;;;;;;9.57;2.30;;;;;;;;;;5065065;28;20059;-72
2022/11/08 05:37:15;;;;;;;16.10;2.63;;;;;;;;;;5057234;28;20583;-71
2022/11/08 05:39:42;;;;;;;11.55;3.15;;;;;;;;;;5040976;28;20045;-71
2022/11/08 05:42:09;;;;;;;11.07;2.47;;;;;;;;;;5046477;28;20057;-71
2022/11/08 05:44:37;;;;;;;9.80;2.45;;;;;;;;;;5046129;28;20049;-71
2022/11/08 05:47:05;;;;;;;10.10;2.30;;;;;;;;;;5044914;28;20488;-71
2022/11/08 05:49:32;;;;;;;12.80;2.55;;;;;;;;;;5046084;28;20045;-71
2022/11/08 05:52:00;;;;;;;10.88;2.40;;;;;;;;;;5045091;28;20053;-71
2022/11/08 05:54:27;;;;;;;11.68;2.30;;;;;;;;;;5043529;28;20052;-71
2022/11/08 05:56:54;;;;;;;12.15;2.53;;;;;;;;;;5041820;28;20069;-71
2022/11/08 05:59:22;;;;;;;17.38;3.25;;;;;;;;;;5030138;28;20091;-71
2022/11/08 06:01:49;;;;;;;7.22;2.08;;;;;;;;;;5038682;28;20064;-71
2022/11/08 06:04:17;;;;;;;8.40;2.45;;;;;;;;;;5036752;28;20374;-70
2022/11/08 06:06:44;;;;;;;10.75;2.38;;;;;;;;;;5036584;28;20064;-71
2022/11/08 06:09:12;;;;;;;8.93;2.60;;;;;;;;;;5040193;28;20049;-71
2022/11/08 06:11:39;;;;;;;9.77;2.60;;;;;;;;;;5038640;28;20056;-71
2022/11/08 06:14:06;;;;;;;9.43;2.47;;;;;;;;;;5035203;28;20072;-70
2022/11/08 06:16:34;;;;;;;8.38;2.38;;;;;;;;;;5032606;28;20080;-71
2022/11/08 06:19:01;;;;;;;9.25;2.45;;;;;;;;;;5041072;28;20064;-71
2022/11/08 06:21:29;;;;;;;9.45;3.10;;;;;;;;;;5041740;28;20104;-71
2022/11/08 06:23:57;;;;;;;7.40;1.83;;;;;;;;;;5042544;28;20629;-71
2022/11/08 06:26:24;;;;;;;12.88;2.55;;;;;;;;;;5038264;28;20052;-71
2022/11/08 06:28:52;;;;;;;9.35;2.10;;;;;;;;;;5059782;28;20519;-71
2022/11/08 06:31:19;;;;;;;8.32;2.22;;;;;;;;;;5040984;28;20053;-72
2022/11/08 06:33:46;;;;;;;8.02;1.85;;;;;;;;;;5045110;28;20053;-70
2022/11/08 06:36:13;;;;;;;16.13;1.85;;;;;;;;;;5041222;28;20064;-71
2022/11/08 06:38:42;;;;;;;6.68;2.15;;;;;;;;;;5058385;28;20060;-71
2022/11/08 06:41:14;;;;;;;7.13;1.88;;;;;;;;;;5063513;28;20040;-72
2022/11/08 06:43:41;;;;;;;8.07;1.90;;;;;;;;;;5064644;28;20052;-71
2022/11/08 06:46:10;;;;;;;8.05;2.10;;;;;;;;;;5064428;28;20060;-70
2022/11/08 06:48:37;;;;;;;9.50;1.85;;;;;;;;;;5065246;28;20587;-70
2022/11/08 06:51:04;;;;;;;11.57;2.20;;;;;;;;;;5064540;28;20053;-71
2022/11/08 06:53:32;;;;;;;10.15;1.90;;;;;;;;;;5062051;28;20456;-71
2022/11/08 06:56:01;;;;;;;8.88;2.22;;;;;;;;;;5062572;28;20055;-71
2022/11/08 06:58:28;;;;;;;7.40;2.15;;;;;;;;;;5056614;28;20503;-71
2022/11/08 07:00:55;;;;;;;11.98;3.22;;;;;;;;;;5053878;28;20044;-73
2022/11/08 07:03:22;;;;;;;7.97;1.88;;;;;;;;;;5059147;28;20049;-71
2022/11/08 07:05:50;;;;;;;11.27;2.20;;;;;;;;;;5062229;28;20060;-71
2022/11/08 07:08:17;;;;;;;7.47;2.13;;;;;;;;;;5059645;28;20079;-71
2022/11/08 07:10:44;;;;;;;13.15;2.40;;;;;;;;;;5064580;28;20075;-71
2022/11/08 07:13:13;;;;;;;11.10;1.95;;;;;;;;;;5060598;28;20048;-70
2022/11/08 07:15:41;;;;;;;8.50;1.80;;;;;;;;;;5055967;28;20052;-71
2022/11/08 07:18:09;;;;;;;10.00;1.80;;;;;;;;;;5064743;28;20442;-71
2022/11/08 07:20:36;;;;;;;9.60;1.60;;;;;;;;;;5058159;28;20041;-71
2022/11/08 07:23:03;;;;;;;9.63;1.92;;;;;;;;;;5062541;28;20048;-71
2022/11/08 07:25:31;;;;;;;7.50;1.88;;;;;;;;;;5061871;28;20049;-71
2022/11/08 07:27:59;;;;;;;9.05;1.90;;;;;;;;;;5063723;28;20140;-71
2022/11/08 07:30:28;;;;;;;9.65;1.75;;;;;;;;;;5061873;28;20087;-71
2022/11/08 07:32:56;;;;;;;8.25;1.60;;;;;;;;;;5063707;28;20048;-72
2022/11/08 07:35:32;;;;;;;9.40;1.70;;;;;;;;;;5063864;28;20053;-71
2022/11/08 07:38:02;;;;;;;9.48;1.83;;;;;;;;;;5057620;28;20067;-72
2022/11/08 07:40:29;;;;;;;6.80;1.90;;;;;;;;;;5055030;28;20048;-71
2022/11/08 07:42:58;;;;;;;6.05;1.90;;;;;;;;;;5060411;28;20048;-72
2022/11/08 07:45:25;;;;;;;8.57;1.90;;;;;;;;;;5057610;28;20064;-71
2022/11/08 07:47:58;;;;;;;9.15;2.00;;;;;;;;;;5054526;28;20503;-71
2022/11/08 07:50:26;;;;;;;13.82;1.80;;;;;;;;;;5057998;28;20063;-73
2022/11/08 07:52:53;;;;;;;8.98;1.60;;;;;;;;;;5057355;28;20052;-72
2022/11/08 07:55:20;;;;;;;8.45;1.65;;;;;;;;;;5060846;28;20052;-71
2022/11/08 07:57:47;;;;;;;7.20;1.75;;;;;;;;;;5063515;28;20045;-72
2022/11/08 08:00:15;;;;;;;11.38;2.30;;;;;;;;;;5057283;28;20056;-72
2022/11/08 08:02:42;;;;;;;4.60;2.08;;;;;;;;;;5058553;28;20754;-73
2022/11/08 08:05:11;;;;;;;7.45;1.63;;;;;;;;;;5063139;28;20059;-71
2022/11/08 08:07:38;;;;;;;4.43;2.00;;;;;;;;;;5052034;28;20049;-72
2022/11/08 08:10:06;;;;;;;9.10;2.80;;;;;;;;;;5058984;28;20044;-71
2022/11/08 08:12:33;;;;;;;6.95;1.90;;;;;;;;;;5059616;28;20052;-72
2022/11/08 08:15:00;;;;;;;7.75;2.30;;;;;;;;;;5057536;28;20491;-71
2022/11/08 08:17:28;;;;;;;7.63;1.58;;;;;;;;;;5057899;28;20048;-71
2022/11/08 08:19:55;;;;;;;8.25;1.70;;;;;;;;;;5058707;28;20471;-72
2022/11/08 08:22:23;;;;;;;7.05;1.63;;;;;;;;;;5059324;28;20060;-72
2022/11/08 08:24:51;;;;;;;5.80;1.40;;;;;;;;;;5058714;28;20048;-71
2022/11/08 08:27:18;;;;;;;7.20;1.80;;;;;;;;;;5054293;28;20135;-72
2022/11/08 08:29:45;;;;;;;7.28;1.58;;;;;;;;;;5053978;28;20049;-72
2022/11/08 08:32:12;;;;;;;9.32;1.90;;;;;;;;;;5058171;28;20044;-73
2022/11/08 08:34:41;;;;;;;7.22;1.83;;;;;;;;;;5062360;28;20068;-71
2022/11/08 08:37:08;;;;;;;5.57;1.55;;;;;;;;;;5056523;28;20061;-72
2022/11/08 08:39:37;;;;;;;6.60;1.80;;;;;;;;;;5034890;28;20049;-71
2022/11/08 08:42:04;;;;;;;6.00;1.30;;;;;;;;;;5039213;28;20063;-72
2022/11/08 08:44:32;;;;;;;6.32;2.13;;;;;;;;;;5039231;28;20079;-72
2022/11/08 08:46:59;;;;;;;7.50;1.70;;;;;;;;;;5041853;28;20049;-72
2022/11/08 08:49:26;;;;;;;3.92;1.77;;;;;;;;;;5042672;28;20049;-71
2022/11/08 08:51:53;;;;;;;5.97;2.10;;;;;;;;;;5034604;28;20053;-71
2022/11/08 08:54:21;;;;;;;4.28;1.30;;;;;;;;;;5040928;28;20057;-71
2022/11/08 08:56:49;;;;;;;7.45;1.70;;;;;;;;;;5041232;28;20057;-71
2022/11/08 08:59:17;;;;;;;6.82;1.45;;;;;;;;;;5039961;28;20064;-72
2022/11/08 09:01:44;;;;;;;7.15;1.58;;;;;;;;;;5038416;28;20049;-72
2022/11/08 09:04:11;;;;;;;4.32;1.58;;;;;;;;;;5039921;28;20140;-72
2022/11/08 09:06:38;;;;;;;4.78;1.58;;;;;;;;;;5043712;28;20052;-72
2022/11/08 09:09:06;;;;;;;4.55;1.55;;;;;;;;;;5044635;28;20059;-72
2022/11/08 09:11:33;;;;;;;8.73;2.03;;;;;;;;;;5042782;28;20055;-71
2022/11/08 09:14:02;;;;;;;6.75;1.80;;;;;;;;;;5041387;28;20045;-71
2022/11/08 09:16:29;;;;;;;4.60;1.45;;;;;;;;;;5042077;28;20499;-73
2022/11/08 09:18:56;;;;;;;5.68;1.70;;;;;;;;;;5037442;28;20049;-74
2022/11/08 09:21:24;;;;;;;8.25;1.92;;;;;;;;;;5042972;28;20060;-71
2022/11/08 09:23:51;;;;;;;4.28;1.48;;;;;;;;;;5042776;28;20053;-72
2022/11/08 09:26:18;;;;;;;6.32;1.60;;;;;;;;;;5043664;28;20107;-72
2022/11/08 09:28:45;;;;;;;6.15;1.67;;;;;;;;;;5042578;28;20056;-72
2022/11/08 09:31:14;;;;;;;7.47;1.88;;;;;;;;;;5040814;28;20045;-72
2022/11/08 09:33:42;;;;;;;5.75;1.70;;;;;;;;;;5038936;28;20073;-71
2022/11/08 09:36:12;;;;;;;7.93;1.88;;;;;;;;;;5038744;28;20049;-72
2022/11/08 09:38:40;;;;;;;4.25;1.40;;;;;;;;;;5053257;28;20056;-73
2022/11/08 09:41:19;;;;;;;5.88;1.45;;;;;;;;;;5062985;28;20447;-71
2022/11/08 09:43:53;;;;;;;6.18;1.60;;;;;;;;;;5062497;28;20056;-71
2022/11/08 09:46:20;;;;;;;;;;;;;;;;;;5064470;28;20055;-71
2022/11/08 09:48:49;;;;;;;6.78;1.73;;;;;;;;;;5062643;28;19924;-72
2022/11/08 09:51:17;;;;;;;3.97;1.83;;;;;;;;;;5060738;28;20056;-72
2022/11/08 09:53:48;;;;;;;6.95;1.52;;;;;;;;;;5063093;28;20052;-72
2022/11/08 09:56:17;;;;;;;3.55;1.25;;;;;;;;;;5062435;28;20075;-73
2022/11/08 09:58:48;;;;;;;8.02;1.45;;;;;;;;;;5062703;28;20059;-73
2022/11/08 10:01:15;;;;;;;3.55;1.40;;;;;;;;;;5063233;28;20088;-72
2022/11/08 10:03:45;;;;;;;8.52;1.33;;;;;;;;;;5057713;28;20048;-71
2022/11/08 10:06:33;;;;;;;4.65;1.17;;;;;;;;;;5058482;28;20048;-73
2022/11/08 10:09:05;;;;;;;4.65;1.35;;;;;;;;;;5037249;28;20147;-71
2022/11/08 10:11:38;;;;;;;7.60;1.50;;;;;;;;;;5062392;28;20048;-72
2022/11/08 10:14:11;;;;;;;6.55;1.50;;;;;;;;;;5058240;28;20053;-73
2022/11/08 10:16:42;;;;;;;5.78;1.42;;;;;;;;;;5059914;28;20064;-73
2022/11/08 10:19:33;;;;;;;6.25;1.98;;;;;;;;;;5063195;28;20942;-71
2022/11/08 10:22:03;;;;;;;7.57;1.52;;;;;;;;;;5059122;28;20493;-71
2022/11/08 10:24:36;;;;;;;6.07;1.33;;;;;;;;;;5061559;28;20060;-71
2022/11/08 10:27:04;;;;;;;8.93;1.70;;;;;;;;;;5065675;28;20048;-72
2022/11/08 10:29:34;;;;;;;4.40;1.30;;;;;;;;;;5060168;28;20445;-71
2022/11/08 10:32:04;;;;;;;5.50;1.40;;;;;;;;;;5066480;28;20059;-72
2022/11/08 10:34:35;;;;;;;3.60;1.30;;;;;;;;;;5063353;28;20056;-73
2022/11/08 10:37:05;;;;;;;4.53;1.50;;;;;;;;;;5066884;28;20059;-73
2022/11/08 10:39:35;;;;;;;5.10;1.20;;;;;;;;;;5063009;28;20562;-72
2022/11/08 10:42:06;;;;;;;4.63;1.40;;;;;;;;;;5067925;28;20044;-72
2022/11/08 10:44:34;;;;;;;3.97;1.30;;;;;;;;;;5085392;28;20093;-73
2022/11/08 10:47:02;;;;;;;3.63;1.50;;;;;;;;;;5062889;28;20044;-71
2022/11/08 10:49:31;;;;;;;3.88;1.30;;;;;;;;;;5086657;28;20135;-73
2022/11/08 10:51:59;;;;;;;4.93;1.60;;;;;;;;;;5067761;28;20051;-72
2022/11/08 10:54:42;;;;;;;5.30;1.30;;;;;;;;;;5066326;28;20063;-72
2022/11/08 10:57:09;;;;;;;;;;;;;;;;;;5066774;28;20071;-72
2022/11/08 10:59:38;;;;;;;3.17;1.40;;;;;;;;;;5064938;28;19925;-72
2022/11/08 11:02:17;;;;;;;6.97;1.42;;;;;;;;;;5059528;28;20052;-72
2022/11/08 11:04:44;;;;;;;5.28;1.35;;;;;;;;;;5062714;28;20044;-72
2022/11/08 11:07:26;;;;;;;6.45;1.48;;;;;;;;;;5067139;28;20056;-72
2022/11/08 11:09:54;;;;;;;6.97;1.33;;;;;;;;;;5067687;28;20147;-72
2022/11/08 11:12:21;;;;;;;4.75;1.48;;;;;;;;;;5076368;28;20059;-72
2022/11/08 11:14:56;;;;;;;3.40;1.50;;;;;;;;;;5085438;28;20055;-72
2022/11/08 11:17:30;;;;;;;9.25;1.50;;;;;;;;;;5059385;28;20052;-72
2022/11/08 11:19:59;;;;;;;4.15;1.20;;;;;;;;;;5066746;28;20040;-72
2022/11/08 11:22:28;;;;;;;4.18;1.30;;;;;;;;;;5052248;28;20052;-72
2022/11/08 11:24:56;;;;;;;6.03;1.45;;;;;;;;;;5060150;28;20051;-73
2022/11/08 11:27:25;;;;;;;5.68;1.35;;;;;;;;;;5066599;28;20063;-72
2022/11/08 11:30:10;;;;;;;4.88;1.30;;;;;;;;;;5064230;28;20494;-72
2022/11/08 11:32:38;;;;;;;9.88;1.70;;;;;;;;;;5063859;28;20059;-73
2022/11/08 11:35:07;;;;;;;5.50;1.65;;;;;;;;;;5063423;28;20768;-72
2022/11/08 11:37:37;;;;;;;8.70;1.67;;;;;;;;;;5067814;28;20422;-72
2022/11/08 11:40:11;;;;;;;9.45;2.10;;;;;;;;;;5067579;28;20052;-71
2022/11/08 11:42:42;;;;;;;4.15;1.48;;;;;;;;;;5066273;28;20076;-73
2022/11/08 11:45:13;;;;;;;4.45;1.23;;;;;;;;;;5064730;28;20052;-73
2022/11/08 11:47:46;;;;;;;4.93;1.38;;;;;;;;;;5066651;28;20054;-71
2022/11/08 11:50:19;;;;;;;6.75;1.23;;;;;;;;;;5067840;28;20570;-72
2022/11/08 11:52:47;;;;;;;4.43;1.38;;;;;;;;;;5070874;28;20048;-72
2022/11/08 11:55:15;;;;;;;8.15;1.70;;;;;;;;;;5067295;28;20109;-71
2022/11/08 11:57:47;;;;;;;3.53;1.38;;;;;;;;;;5067662;28;20490;-72
2022/11/08 12:00:17;;;;;;;3.83;1.30;;;;;;;;;;5066130;28;20052;-72
2022/11/08 12:03:05;;;;;;;7.22;1.50;;;;;;;;;;5065453;28;20052;-72
2022/11/08 12:05:43;;;;;;;7.22;1.65;;;;;;;;;;5066169;28;20056;-71
2022/11/08 12:08:19;;;;;;;5.43;1.60;;;;;;;;;;5063829;28;20762;-72
2022/11/08 12:10:56;;;;;;;3.47;1.33;;;;;;;;;;5067984;28;20119;-72
2022/11/08 12:13:27;;;;;;;7.07;1.40;;;;;;;;;;5068301;28;20067;-71
2022/11/08 12:16:00;;;;;;;10.88;1.45;;;;;;;;;;5066298;28;20059;-71
2022/11/08 12:18:39;;;;;;;6.53;1.27;;;;;;;;;;5084602;28;20857;-70
2022/11/08 12:21:08;;;;;;;5.95;1.67;;;;;;;;;;5078217;28;20055;-71
2022/11/08 12:23:40;;;;;;;6.15;1.30;;;;;;;;;;5059529;28;20047;-71
2022/11/08 12:26:12;;;;;;;3.92;1.55;;;;;;;;;;5066264;28;20043;-72
2022/11/08 12:28:49;;;;;;;6.38;1.40;;;;;;;;;;5084173;28;20055;-72
2022/11/08 12:31:24;;;;;;;3.47;1.10;;;;;;;;;;5082047;28;20067;-71
2022/11/08 12:33:56;;;;;;;3.22;1.10;;;;;;;;;;5066732;28;20056;-71
2022/11/08 12:36:25;;;;;;;5.78;1.45;;;;;;;;;;5065228;28;20056;-74
2022/11/08 12:38:58;;;;;;;5.55;1.50;;;;;;;;;;5059538;28;20384;-72
2022/11/08 12:41:31;;;;;;;5.72;1.48;;;;;;;;;;5061575;28;20048;-71
2022/11/08 12:44:10;;;;;;;7.68;1.40;;;;;;;;;;5054850;28;20503;-71
2022/11/08 12:46:45;;;;;;;6.97;1.45;;;;;;;;;;5061046;28;20052;-72
2022/11/08 12:49:27;;;;;;;7.80;1.63;;;;;;;;;;5060274;28;20494;-73
2022/11/08 12:52:01;;;;;;;4.97;1.42;;;;;;;;;;5059044;28;20060;-74
2022/11/08 12:54:33;;;;;;;7.82;1.60;;;;;;;;;;5059128;28;20075;-72
2022/11/08 12:57:02;;;;;;;5.07;1.30;;;;;;;;;;5062443;28;20040;-71
2022/11/08 12:59:29;;;;;;;6.53;1.50;;;;;;;;;;5063328;28;20056;-72
2022/11/08 13:01:59;;;;;;;6.00;1.40;;;;;;;;;;5059216;28;20051;-71
2022/11/08 13:04:39;;;;;;;5.50;1.48;;;;;;;;;;5062004;28;20043;-71
2022/11/08 13:07:10;;;;;;;7.25;1.52;;;;;;;;;;5059384;28;20057;-71
2022/11/08 13:09:40;;;;;;;3.40;1.45;;;;;;;;;;5062966;28;20089;-73
2022/11/08 13:12:14;;;;;;;9.20;1.90;;;;;;;;;;5061945;28;20487;-73
2022/11/08 13:14:41;;;;;;;7.40;1.70;;;;;;;;;;5058032;28;20047;-74
2022/11/08 13:17:17;;;;;;;7.47;1.83;;;;;;;;;;5055837;28;20052;-72
2022/11/08 13:19:59;;;;;;;8.15;1.70;;;;;;;;;;5063351;28;20499;-71
2022/11/08 13:22:46;;;;;;;5.65;1.83;;;;;;;;;;5055286;28;20049;-72
2022/11/08 13:25:28;;;;;;;3.45;1.30;;;;;;;;;;5055292;28;20052;-71
2022/11/08 13:27:55;;;;;;;6.15;1.42;;;;;;;;;;5056480;28;20545;-71
2022/11/08 13:30:40;;;;;;;4.10;1.50;;;;;;;;;;5058226;28;20052;-71
2022/11/08 13:33:15;;;;;;;5.38;1.58;;;;;;;;;;5055771;28;20049;-74
2022/11/08 13:35:48;;;;;;;5.93;1.90;;;;;;;;;;5060690;28;20509;-71
2022/11/08 13:38:21;;;;;;;4.78;1.73;;;;;;;;;;5061571;28;21217;-73
2022/11/08 13:41:06;;;;;;;7.88;2.10;;;;;;;;;;5037469;28;20045;-71
2022/11/08 13:43:33;;;;;;;4.97;1.50;;;;;;;;;;5042074;28;20071;-73
2022/11/08 13:46:15;;;;;;;5.90;1.55;;;;;;;;;;5046175;28;20061;-72
2022/11/08 13:49:04;;;;;;;4.80;1.48;;;;;;;;;;5043562;28;20045;-72
2022/11/08 13:51:31;;;;;;;4.18;1.60;;;;;;;;;;5043722;28;20464;-73
2022/11/08 13:54:00;;;;;;;6.10;1.92;;;;;;;;;;5046666;28;20776;-75
2022/11/08 13:56:42;;;;;;;5.47;2.00;;;;;;;;;;5045563;28;20060;-71
2022/11/08 13:59:28;;;;;;;6.95;1.85;;;;;;;;;;5046626;28;20660;-72
2022/11/08 14:01:57;;;;;;;7.90;2.30;;;;;;;;;;5048816;28;20055;-71
2022/11/08 14:04:26;;;;;;;6.07;1.95;;;;;;;;;;5036544;28;20056;-71
2022/11/08 14:06:59;;;;;;;5.88;2.00;;;;;;;;;;5048248;28;20071;-70
2022/11/08 14:09:30;;;;;;;9.45;1.90;;;;;;;;;;5036471;28;20083;-71
2022/11/08 14:12:01;;;;;;;6.50;2.15;;;;;;;;;;5042243;28;20490;-71
2022/11/08 14:14:34;;;;;;;7.53;2.33;;;;;;;;;;5048114;28;20063;-72
2022/11/08 14:17:08;;;;;;;5.97;2.13;;;;;;;;;;5044295;28;20048;-71
2022/11/08 14:19:38;;;;;;;5.97;1.90;;;;;;;;;;5047088;28;20306;-73
2022/11/08 14:22:12;;;;;;;5.28;1.55;;;;;;;;;;5044180;28;20455;-70
2022/11/08 14:24:40;;;;;;;5.53;1.63;;;;;;;;;;5044181;28;20045;-70
2022/11/08 14:27:07;;;;;;;6.70;1.88;;;;;;;;;;5042284;28;20438;-71
2022/11/08 14:29:34;;;;;;;4.10;1.40;;;;;;;;;;5041491;28;20048;-70
2022/11/08 14:32:03;;;;;;;5.07;1.67;;;;;;;;;;5051761;28;20079;-71
2022/11/08 14:34:32;;;;;;;6.65;1.92;;;;;;;;;;5042681;28;20670;-71
2022/11/08 14:37:01;;;;;;;5.60;2.13;;;;;;;;;;5045138;28;20053;-70
2022/11/08 14:39:30;;;;;;;10.32;2.10;;;;;;;;;;5060523;28;20097;-70
2022/11/08 14:41:59;;;;;;;7.78;1.60;;;;;;;;;;5064511;28;20074;-70
2022/11/08 14:44:27;;;;;;;7.03;2.20;;;;;;;;;;5063149;28;20865;-72
2022/11/08 14:46:54;;;;;;;5.57;1.33;;;;;;;;;;5067942;28;20073;-71
2022/11/08 14:49:22;;;;;;;7.65;1.60;;;;;;;;;;5064535;28;20049;-71
2022/11/08 14:52:04;;;;;;;9.35;1.65;;;;;;;;;;5067106;28;20044;-70
2022/11/08 14:54:37;;;;;;;6.25;1.50;;;;;;;;;;5066287;28;20055;-71
2022/11/08 14:57:04;;;;;;;5.72;1.42;;;;;;;;;;5087038;28;20059;-70
2022/11/08 14:59:31;;;;;;;10.27;1.88;;;;;;;;;;5065264;28;20048;-70
2022/11/08 15:02:02;;;;;;;6.30;1.80;;;;;;;;;;5069064;28;20059;-70
2022/11/08 15:04:31;;;;;;;6.57;1.70;;;;;;;;;;5067450;28;20040;-70
2022/11/08 15:06:59;;;;;;;3.53;1.25;;;;;;;;;;5088310;28;20459;-70
2022/11/08 15:09:29;;;;;;;6.38;1.42;;;;;;;;;;5062216;28;20138;-70
2022/11/08 15:11:57;;;;;;;5.95;1.60;;;;;;;;;;5069159;28;20040;-70
2022/11/08 15:14:25;;;;;;;6.95;1.58;;;;;;;;;;5066149;28;20043;-71
2022/11/08 15:16:54;;;;;;;10.55;3.22;;;;;;;;;;5068975;28;20058;-70